Decoded Metar for VOML (MANGALORE in INDIA) (IATA:IXE) | Meteo·Mobile Aviation Weather
aviador You're here:

VOML Decoded Metar

MANGALORE in INDIA
Report Time2018-09-22 14:30:00
UTC Time2018-09-22 14:56:43
Flight Rules vfr VFR
Wind230° at 03 kt
W.Decomp.*RWY 24: 3.0 kt HW 0.5 kt LCW
RWY 27: 2.3 kt HW 1.9 kt LCW
W.Rank230° ranks 19
Current wind is below 230° avg. (5.9)
Visibility8000 m
Phenomena:N/A
Clouds:Few 015 Hf
Expected CloudBase > 1,600 ft AGL from Temp-Dew spread
CeilingNone
Temp27°C (ISA +13)
Dew Point23°C (79% RH)
Heat Index29.6°C
QNH1010 hPa
Density Alt2,270 ft
Elevation338 ft
Report Wrong Elevation
Raw Report
METAR VOML 221430Z 23003KT 8000 FEW015 27/23 Q1010 NOSIG=

Extra information for VOML:More info

Metar Taf Metar & Taf Last 4 Metars F.Rules Stats Wind Profile Meteogram Temp Stats Airport Information Weather charts Add Link Nearby VenuesMetar ALERT Operation Metar Decoded Social comments